Pagrindinis puslapis
METAR-TAF:

METAR-TAF

Oro uostai :

Umeo, Švedija

platuma: 63-48N, ilguma: 020-17E, Aukštis: 7 m

Dabartinis oras

Ataskaita buvo paskelbta 25 minutes, ne 14:20 UTC
Vėjas 6 kt iš Pietų/Pietvakarių
Temperatūra 3°C
Drėgmė 93%
Slėgis 988 hPa
Matomumas 10 km arba daugiau
nėra debesų žemiau 1500 m ir nėra kamuolinių lietaus debesų

METAR: ESNU 211420Z 20006KT CAVOK 03/02 Q0988 R14/29//65

Laikas: 15:45 (14:45 UTC)

Prognozė

Ataskaita buvo paskelbta 15 minutes, ne 14:30 UTC
Prognozė galioja nuo 21 metu 15 UTC su 21 metu 24 UTC
Vėjas 5 kt iš Pietų/Pietvakarių
Matomumas 10 km arba daugiau
nėra debesų žemiau 1500 m ir nėra kamuolinių lietaus debesų
Tapsmas
nuo 21 metu 18 UTC su 21 metu 20 UTC
Vėjas 18 kt iš Pietų/Pietvakarių su gūsio iki 30 kt

TAF: ESNU 211430Z 2115/2124 21005KT CAVOK BECMG 2118/2120 21018G30KT

Orai ataskaitas ir orų prognozės (METAR, TAF).

turimą stotys yra geltonos ir raudonos taškus žemėlapyje.

Perkelti pele per norėdami pamatyti stoties vardą.

Tada spustelėkite, norėdami matyti oro stebėjimo ir prognozės.

Norėdami pakeisti žemėlapį: spustelėkite ant žalios mygtukų su juodo kryžiaus žemyn,; žalią mygtuką su brūkšneliu, jei norite nutolinti; arba žalių rodyklių gretimoms žemėlapius.


METAR-TAF: